sensor_id;sensor_type;location;lat;lon;timestamp;temperature;humidity
40848;DHT22;26570;50.962;5.340;2023-11-21T06:44:48;10.10;99.90
40848;DHT22;26570;50.962;5.340;2023-11-21T06:47:33;10.30;99.90
40848;DHT22;26570;50.962;5.340;2023-11-21T06:50:19;10.20;99.90
40848;DHT22;26570;50.962;5.340;2023-11-21T06:53:04;10.20;99.90
40848;DHT22;26570;50.962;5.340;2023-11-21T06:55:52;10.30;99.90
40848;DHT22;26570;50.962;5.340;2023-11-21T06:58:37;10.30;99.90
40848;DHT22;26570;50.962;5.340;2023-11-21T07:01:22;10.30;99.90
40848;DHT22;26570;50.962;5.340;2023-11-21T07:04:08;10.20;99.90
40848;DHT22;26570;50.962;5.340;2023-11-21T07:07:16;10.30;99.90
40848;DHT22;26570;50.962;5.340;2023-11-21T07:10:23;10.30;99.90
40848;DHT22;26570;50.962;5.340;2023-11-21T07:13:08;10.30;99.90
40848;DHT22;26570;50.962;5.340;2023-11-21T07:16:02;10.40;99.90
40848;DHT22;26570;50.962;5.340;2023-11-21T07:19:10;10.40;99.90
40848;DHT22;26570;50.962;5.340;2023-11-21T07:21:56;10.30;99.90
40848;DHT22;26570;50.962;5.340;2023-11-21T07:24:46;10.40;99.90
40848;DHT22;26570;50.962;5.340;2023-11-21T07:27:36;10.40;99.90
40848;DHT22;26570;50.962;5.340;2023-11-21T07:30:22;10.50;99.90
40848;DHT22;26570;50.962;5.340;2023-11-21T07:33:07;10.40;99.90
40848;DHT22;26570;50.962;5.340;2023-11-21T07:36:19;10.40;99.90
40848;DHT22;26570;50.962;5.340;2023-11-21T07:39:11;10.60;99.90
40848;DHT22;26570;50.962;5.340;2023-11-21T07:41:57;10.70;99.90
40848;DHT22;26570;50.962;5.340;2023-11-21T07:44:42;10.80;99.90
40848;DHT22;26570;50.962;5.340;2023-11-21T07:47:50;10.60;99.90
40848;DHT22;26570;50.962;5.340;2023-11-21T07:50:58;10.60;99.90
40848;DHT22;26570;50.962;5.340;2023-11-21T07:54:06;10.60;99.90
40848;DHT22;26570;50.962;5.340;2023-11-21T07:56:51;10.60;99.90
40848;DHT22;26570;50.962;5.340;2023-11-21T08:00:03;10.70;99.90
40848;DHT22;26570;50.962;5.340;2023-11-21T08:02:51;10.60;99.90
40848;DHT22;26570;50.962;5.340;2023-11-21T08:06:11;10.60;99.90
40848;DHT22;26570;50.962;5.340;2023-11-21T08:08:57;10.70;99.90
40848;DHT22;26570;50.962;5.340;2023-11-21T08:12:14;10.80;99.90
40848;DHT22;26570;50.962;5.340;2023-11-21T08:15:25;10.80;99.90
40848;DHT22;26570;50.962;5.340;2023-11-21T08:18:12;10.80;99.90
40848;DHT22;26570;50.962;5.340;2023-11-21T08:21:01;10.80;99.90
40848;DHT22;26570;50.962;5.340;2023-11-21T08:23:48;10.80;99.90
40848;DHT22;26570;50.962;5.340;2023-11-21T08:26:39;10.90;99.90
40848;DHT22;26570;50.962;5.340;2023-11-21T08:29:28;10.90;99.90
40848;DHT22;26570;50.962;5.340;2023-11-21T08:32:36;10.90;99.90
40848;DHT22;26570;50.962;5.340;2023-11-21T08:35:48;10.80;99.90
40848;DHT22;26570;50.962;5.340;2023-11-21T08:39:03;10.80;99.90
40848;DHT22;26570;50.962;5.340;2023-11-21T08:41:51;10.90;99.90
40848;DHT22;26570;50.962;5.340;2023-11-21T08:45:12;10.80;99.90
40848;DHT22;26570;50.962;5.340;2023-11-21T08:48:24;11.00;99.90
40848;DHT22;26570;50.962;5.340;2023-11-21T08:51:39;11.10;99.90
40848;DHT22;26570;50.962;5.340;2023-11-21T08:54:28;11.10;99.90
40848;DHT22;26570;50.962;5.340;2023-11-21T08:57:46;11.10;99.90
40848;DHT22;26570;50.962;5.340;2023-11-21T09:00:39;11.20;99.90
40848;DHT22;26570;50.962;5.340;2023-11-21T09:03:35;11.20;99.90
40848;DHT22;26570;50.962;5.340;2023-11-21T09:06:21;11.10;99.90
40848;DHT22;26570;50.962;5.340;2023-11-21T09:09:11;11.10;99.90
40848;DHT22;26570;50.962;5.340;2023-11-21T09:12:05;11.10;99.90
40848;DHT22;26570;50.962;5.340;2023-11-21T09:15:19;11.20;99.90
40848;DHT22;26570;50.962;5.340;2023-11-21T09:18:08;11.30;99.90
40848;DHT22;26570;50.962;5.340;2023-11-21T09:21:21;11.60;99.90
40848;DHT22;26570;50.962;5.340;2023-11-21T09:24:14;11.60;99.90
40848;DHT22;26570;50.962;5.340;2023-11-21T09:27:52;11.50;99.90
40848;DHT22;26570;50.962;5.340;2023-11-21T09:30:43;11.50;99.90
40848;DHT22;26570;50.962;5.340;2023-11-21T09:33:32;11.70;99.90
40848;DHT22;26570;50.962;5.340;2023-11-21T09:36:46;11.90;99.90
40848;DHT22;26570;50.962;5.340;2023-11-21T09:39:32;11.90;99.90
40848;DHT22;26570;50.962;5.340;2023-11-21T09:42:39;12.10;99.90
40848;DHT22;26570;50.962;5.340;2023-11-21T09:45:32;12.20;99.90
40848;DHT22;26570;50.962;5.340;2023-11-21T09:48:24;12.10;99.90
40848;DHT22;26570;50.962;5.340;2023-11-21T09:51:16;12.00;99.90
40848;DHT22;26570;50.962;5.340;2023-11-21T09:54:06;12.20;99.90
40848;DHT22;26570;50.962;5.340;2023-11-21T09:57:33;12.10;99.90
40848;DHT22;26570;50.962;5.340;2023-11-21T10:00:27;12.20;99.90
40848;DHT22;26570;50.962;5.340;2023-11-21T10:03:36;12.20;99.90
40848;DHT22;26570;50.962;5.340;2023-11-21T10:06:40;12.00;99.90
40848;DHT22;26570;50.962;5.340;2023-11-21T10:09:39;12.20;99.90
40848;DHT22;26570;50.962;5.340;2023-11-21T10:12:29;12.20;99.90
40848;DHT22;26570;50.962;5.340;2023-11-21T10:15:51;12.30;99.90
40848;DHT22;26570;50.962;5.340;2023-11-21T10:18:44;12.20;99.90
40848;DHT22;26570;50.962;5.340;2023-11-21T10:21:32;12.20;99.90
40848;DHT22;26570;50.962;5.340;2023-11-21T10:24:21;12.00;99.90
40848;DHT22;26570;50.962;5.340;2023-11-21T10:27:10;12.10;99.90
40848;DHT22;26570;50.962;5.340;2023-11-21T10:30:03;12.40;99.90
40848;DHT22;26570;50.962;5.340;2023-11-21T10:32:50;12.20;99.90
40848;DHT22;26570;50.962;5.340;2023-11-21T10:38:31;12.30;99.90
40848;DHT22;26570;50.962;5.340;2023-11-21T10:41:25;12.60;99.90
40848;DHT22;26570;50.962;5.340;2023-11-21T10:44:34;12.30;99.90
40848;DHT22;26570;50.962;5.340;2023-11-21T10:47:24;12.20;99.90
40848;DHT22;26570;50.962;5.340;2023-11-21T10:50:21;12.20;99.90
40848;DHT22;26570;50.962;5.340;2023-11-21T10:53:11;12.40;99.90
40848;DHT22;26570;50.962;5.340;2023-11-21T10:56:08;12.40;99.90
40848;DHT22;26570;50.962;5.340;2023-11-21T10:58:57;12.90;99.90
40848;DHT22;26570;50.962;5.340;2023-11-21T11:01:50;12.90;99.90
40848;DHT22;26570;50.962;5.340;2023-11-21T11:04:37;12.50;99.90
40848;DHT22;26570;50.962;5.340;2023-11-21T11:07:27;12.50;99.90
40848;DHT22;26570;50.962;5.340;2023-11-21T11:10:22;12.40;99.90
40848;DHT22;26570;50.962;5.340;2023-11-21T11:13:13;12.40;99.90
40848;DHT22;26570;50.962;5.340;2023-11-21T11:16:40;12.50;99.90
40848;DHT22;26570;50.962;5.340;2023-11-21T11:20:00;12.40;99.90
40848;DHT22;26570;50.962;5.340;2023-11-21T11:26:42;12.50;99.90
40848;DHT22;26570;50.962;5.340;2023-11-21T11:33:23;12.60;99.90
40848;DHT22;26570;50.962;5.340;2023-11-21T11:36:25;12.60;99.90
40848;DHT22;26570;50.962;5.340;2023-11-21T11:39:40;12.70;99.90
40848;DHT22;26570;50.962;5.340;2023-11-21T11:42:29;12.60;99.90
40848;DHT22;26570;50.962;5.340;2023-11-21T11:45:18;13.10;99.90
40848;DHT22;26570;50.962;5.340;2023-11-21T11:48:37;13.00;99.90
40848;DHT22;26570;50.962;5.340;2023-11-21T11:51:24;12.90;99.90
40848;DHT22;26570;50.962;5.340;2023-11-21T11:54:10;13.00;99.90
40848;DHT22;26570;50.962;5.340;2023-11-21T11:56:55;12.90;99.90
40848;DHT22;26570;50.962;5.340;2023-11-21T12:02:56;12.40;99.90
40848;DHT22;26570;50.962;5.340;2023-11-21T12:05:41;12.30;99.90
40848;DHT22;26570;50.962;5.340;2023-11-21T12:08:36;12.30;99.90
40848;DHT22;26570;50.962;5.340;2023-11-21T12:11:30;12.30;99.90
40848;DHT22;26570;50.962;5.340;2023-11-21T12:14:17;12.40;99.90
40848;DHT22;26570;50.962;5.340;2023-11-21T12:17:03;12.30;99.90
40848;DHT22;26570;50.962;5.340;2023-11-21T12:19:52;12.20;99.90
40848;DHT22;26570;50.962;5.340;2023-11-21T12:22:40;12.40;99.90
40848;DHT22;26570;50.962;5.340;2023-11-21T12:25:28;12.50;99.90
40848;DHT22;26570;50.962;5.340;2023-11-21T12:28:20;12.70;99.90
40848;DHT22;26570;50.962;5.340;2023-11-21T12:31:07;12.90;99.90
40848;DHT22;26570;50.962;5.340;2023-11-21T12:34:16;13.00;99.90
40848;DHT22;26570;50.962;5.340;2023-11-21T12:37:02;12.80;99.90
40848;DHT22;26570;50.962;5.340;2023-11-21T12:39:47;12.90;99.90
40848;DHT22;26570;50.962;5.340;2023-11-21T12:42:35;12.60;99.90
40848;DHT22;26570;50.962;5.340;2023-11-21T12:45:22;12.70;99.90
40848;DHT22;26570;50.962;5.340;2023-11-21T12:48:12;12.70;99.90
40848;DHT22;26570;50.962;5.340;2023-11-21T12:50:57;12.60;99.90
40848;DHT22;26570;50.962;5.340;2023-11-21T12:53:45;12.60;99.90
40848;DHT22;26570;50.962;5.340;2023-11-21T12:56:32;12.60;99.90
40848;DHT22;26570;50.962;5.340;2023-11-21T12:59:24;12.60;99.90
40848;DHT22;26570;50.962;5.340;2023-11-21T13:02:20;12.60;99.90
40848;DHT22;26570;50.962;5.340;2023-11-21T13:05:10;12.70;99.90
40848;DHT22;26570;50.962;5.340;2023-11-21T13:08:08;12.70;99.90
40848;DHT22;26570;50.962;5.340;2023-11-21T13:10:56;12.90;99.90
40848;DHT22;26570;50.962;5.340;2023-11-21T13:13:45;13.00;99.90
40848;DHT22;26570;50.962;5.340;2023-11-21T13:16:35;13.00;99.90
40848;DHT22;26570;50.962;5.340;2023-11-21T13:19:26;12.90;99.90
40848;DHT22;26570;50.962;5.340;2023-11-21T13:22:13;12.90;99.90
40848;DHT22;26570;50.962;5.340;2023-11-21T13:24:58;12.90;99.90
40848;DHT22;26570;50.962;5.340;2023-11-21T13:27:46;12.80;99.90
40848;DHT22;26570;50.962;5.340;2023-11-21T13:30:34;12.90;99.90
40848;DHT22;26570;50.962;5.340;2023-11-21T13:33:24;13.10;99.90
40848;DHT22;26570;50.962;5.340;2023-11-21T13:36:15;13.10;99.90
40848;DHT22;26570;50.962;5.340;2023-11-21T13:39:10;13.20;99.90
40848;DHT22;26570;50.962;5.340;2023-11-21T13:42:27;13.20;99.90
40848;DHT22;26570;50.962;5.340;2023-11-21T13:45:13;13.20;99.90
40848;DHT22;26570;50.962;5.340;2023-11-21T13:48:12;13.10;99.90
40848;DHT22;26570;50.962;5.340;2023-11-21T13:51:07;13.00;99.90
40848;DHT22;26570;50.962;5.340;2023-11-21T13:54:04;12.90;99.90
40848;DHT22;26570;50.962;5.340;2023-11-21T13:56:53;12.70;99.90
40848;DHT22;26570;50.962;5.340;2023-11-21T13:59:39;12.60;99.90
40848;DHT22;26570;50.962;5.340;2023-11-21T14:02:29;12.80;99.90
40848;DHT22;26570;50.962;5.340;2023-11-21T14:05:24;12.90;99.90
40848;DHT22;26570;50.962;5.340;2023-11-21T14:08:20;12.90;99.90
40848;DHT22;26570;50.962;5.340;2023-11-21T14:11:05;12.90;99.90
40848;DHT22;26570;50.962;5.340;2023-11-21T14:13:51;13.00;99.90
40848;DHT22;26570;50.962;5.340;2023-11-21T14:16:49;13.10;99.90
40848;DHT22;26570;50.962;5.340;2023-11-21T14:19:35;13.10;99.90
40848;DHT22;26570;50.962;5.340;2023-11-21T14:22:27;13.10;99.90
40848;DHT22;26570;50.962;5.340;2023-11-21T14:25:37;13.10;99.90
40848;DHT22;26570;50.962;5.340;2023-11-21T14:28:26;13.10;99.90
40848;DHT22;26570;50.962;5.340;2023-11-21T14:31:12;13.10;99.90
40848;DHT22;26570;50.962;5.340;2023-11-21T14:33:59;12.80;99.90
40848;DHT22;26570;50.962;5.340;2023-11-21T14:36:46;13.10;99.90
40848;DHT22;26570;50.962;5.340;2023-11-21T14:39:35;12.90;99.90
40848;DHT22;26570;50.962;5.340;2023-11-21T14:42:25;12.90;99.90
40848;DHT22;26570;50.962;5.340;2023-11-21T14:45:11;12.80;99.90
40848;DHT22;26570;50.962;5.340;2023-11-21T14:47:58;13.00;99.90
40848;DHT22;26570;50.962;5.340;2023-11-21T14:50:51;13.00;99.90
40848;DHT22;26570;50.962;5.340;2023-11-21T14:53:47;13.30;99.90
40848;DHT22;26570;50.962;5.340;2023-11-21T14:56:45;13.20;99.90
40848;DHT22;26570;50.962;5.340;2023-11-21T14:59:33;13.00;99.90
40848;DHT22;26570;50.962;5.340;2023-11-21T15:02:19;12.90;99.90
40848;DHT22;26570;50.962;5.340;2023-11-21T15:05:28;12.80;99.90
40848;DHT22;26570;50.962;5.340;2023-11-21T15:08:13;12.80;99.90
40848;DHT22;26570;50.962;5.340;2023-11-21T15:11:30;12.80;99.90
40848;DHT22;26570;50.962;5.340;2023-11-21T15:14:15;12.70;99.90
40848;DHT22;26570;50.962;5.340;2023-11-21T15:17:28;12.70;99.90
40848;DHT22;26570;50.962;5.340;2023-11-21T15:20:19;12.70;99.90
40848;DHT22;26570;50.962;5.340;2023-11-21T15:23:09;12.60;99.90
40848;DHT22;26570;50.962;5.340;2023-11-21T15:25:57;12.60;99.90
40848;DHT22;26570;50.962;5.340;2023-11-21T15:28:42;12.60;99.90
40848;DHT22;26570;50.962;5.340;2023-11-21T15:31:31;12.80;99.90
40848;DHT22;26570;50.962;5.340;2023-11-21T15:34:40;12.80;99.90
40848;DHT22;26570;50.962;5.340;2023-11-21T15:37:26;12.80;99.90
40848;DHT22;26570;50.962;5.340;2023-11-21T15:40:15;12.60;99.90
40848;DHT22;26570;50.962;5.340;2023-11-21T15:43:01;12.70;99.90
40848;DHT22;26570;50.962;5.340;2023-11-21T15:45:48;12.40;99.90
40848;DHT22;26570;50.962;5.340;2023-11-21T15:48:34;12.40;99.90
40848;DHT22;26570;50.962;5.340;2023-11-21T15:51:24;12.30;99.90
40848;DHT22;26570;50.962;5.340;2023-11-21T15:54:15;12.20;99.90
40848;DHT22;26570;50.962;5.340;2023-11-21T15:57:07;12.10;99.90
40848;DHT22;26570;50.962;5.340;2023-11-21T15:59:56;12.00;99.90
40848;DHT22;26570;50.962;5.340;2023-11-21T16:02:45;12.10;99.90
40848;DHT22;26570;50.962;5.340;2023-11-21T16:05:30;12.00;99.90
40848;DHT22;26570;50.962;5.340;2023-11-21T16:08:16;11.90;99.90
40848;DHT22;26570;50.962;5.340;2023-11-21T16:11:03;12.00;99.90
40848;DHT22;26570;50.962;5.340;2023-11-21T16:13:48;11.80;99.90
40848;DHT22;26570;50.962;5.340;2023-11-21T16:16:56;11.70;99.90
40848;DHT22;26570;50.962;5.340;2023-11-21T16:19:44;11.80;99.90
40848;DHT22;26570;50.962;5.340;2023-11-21T16:22:29;11.70;99.90
40848;DHT22;26570;50.962;5.340;2023-11-21T16:25:16;11.80;99.90
40848;DHT22;26570;50.962;5.340;2023-11-21T16:28:04;11.80;99.90
40848;DHT22;26570;50.962;5.340;2023-11-21T16:31:29;12.00;99.90
40848;DHT22;26570;50.962;5.340;2023-11-21T16:34:19;11.90;99.90
40848;DHT22;26570;50.962;5.340;2023-11-21T16:37:06;11.80;99.90
40848;DHT22;26570;50.962;5.340;2023-11-21T16:39:51;11.60;99.90
40848;DHT22;26570;50.962;5.340;2023-11-21T16:42:36;11.60;99.90
40848;DHT22;26570;50.962;5.340;2023-11-21T16:45:22;11.70;99.90
40848;DHT22;26570;50.962;5.340;2023-11-21T16:48:07;11.70;99.90
40848;DHT22;26570;50.962;5.340;2023-11-21T16:50:52;11.70;99.90
40848;DHT22;26570;50.962;5.340;2023-11-21T16:53:38;11.50;99.90
40848;DHT22;26570;50.962;5.340;2023-11-21T16:56:24;11.70;99.90
40848;DHT22;26570;50.962;5.340;2023-11-21T16:59:10;11.90;99.90
40848;DHT22;26570;50.962;5.340;2023-11-21T17:02:18;11.70;99.90
40848;DHT22;26570;50.962;5.340;2023-11-21T17:05:03;11.70;99.90
40848;DHT22;26570;50.962;5.340;2023-11-21T17:08:13;11.60;99.90
40848;DHT22;26570;50.962;5.340;2023-11-21T17:11:07;11.70;99.90
40848;DHT22;26570;50.962;5.340;2023-11-21T17:14:22;11.80;99.90
40848;DHT22;26570;50.962;5.340;2023-11-21T17:17:13;11.80;99.90
40848;DHT22;26570;50.962;5.340;2023-11-21T17:20:01;11.60;99.90
40848;DHT22;26570;50.962;5.340;2023-11-21T17:23:20;11.70;99.90
40848;DHT22;26570;50.962;5.340;2023-11-21T17:26:05;11.60;99.90
40848;DHT22;26570;50.962;5.340;2023-11-21T17:29:13;11.70;99.90
40848;DHT22;26570;50.962;5.340;2023-11-21T17:32:00;11.80;99.90
40848;DHT22;26570;50.962;5.340;2023-11-21T17:34:45;11.60;99.90
40848;DHT22;26570;50.962;5.340;2023-11-21T17:37:32;11.50;99.90
40848;DHT22;26570;50.962;5.340;2023-11-21T17:40:20;11.30;99.90
40848;DHT22;26570;50.962;5.340;2023-11-21T17:43:08;11.40;99.90
40848;DHT22;26570;50.962;5.340;2023-11-21T17:46:21;11.00;99.90
40848;DHT22;26570;50.962;5.340;2023-11-21T17:49:06;11.10;99.90
40848;DHT22;26570;50.962;5.340;2023-11-21T17:52:16;11.10;99.90
40848;DHT22;26570;50.962;5.340;2023-11-21T17:55:08;11.00;99.90
40848;DHT22;26570;50.962;5.340;2023-11-21T17:57:53;11.10;99.90
40848;DHT22;26570;50.962;5.340;2023-11-21T18:01:06;11.10;99.90
40848;DHT22;26570;50.962;5.340;2023-11-21T18:03:51;11.10;99.90
40848;DHT22;26570;50.962;5.340;2023-11-21T18:06:37;11.10;99.90
40848;DHT22;26570;50.962;5.340;2023-11-21T18:09:22;11.20;99.90
40848;DHT22;26570;50.962;5.340;2023-11-21T18:12:29;11.30;99.90
40848;DHT22;26570;50.962;5.340;2023-11-21T18:15:38;11.30;99.90
40848;DHT22;26570;50.962;5.340;2023-11-21T18:18:22;11.20;99.90
40848;DHT22;26570;50.962;5.340;2023-11-21T18:21:09;11.10;99.90
40848;DHT22;26570;50.962;5.340;2023-11-21T18:23:54;11.00;99.90
40848;DHT22;26570;50.962;5.340;2023-11-21T18:26:41;11.00;99.90
40848;DHT22;26570;50.962;5.340;2023-11-21T18:30:00;11.00;99.90
40848;DHT22;26570;50.962;5.340;2023-11-21T18:32:48;11.10;99.90
40848;DHT22;26570;50.962;5.340;2023-11-21T18:35:33;11.20;99.90
40848;DHT22;26570;50.962;5.340;2023-11-21T18:38:18;11.20;99.90
40848;DHT22;26570;50.962;5.340;2023-11-21T18:41:03;11.10;99.90
40848;DHT22;26570;50.962;5.340;2023-11-21T18:43:48;11.10;99.90
40848;DHT22;26570;50.962;5.340;2023-11-21T18:46:38;11.10;99.90
40848;DHT22;26570;50.962;5.340;2023-11-21T18:49:25;11.20;99.90
40848;DHT22;26570;50.962;5.340;2023-11-21T18:52:14;11.00;99.90
40848;DHT22;26570;50.962;5.340;2023-11-21T18:54:59;10.70;99.90
40848;DHT22;26570;50.962;5.340;2023-11-21T18:57:50;10.50;99.90
40848;DHT22;26570;50.962;5.340;2023-11-21T19:01:02;10.60;99.90
40848;DHT22;26570;50.962;5.340;2023-11-21T19:03:50;10.50;99.90
40848;DHT22;26570;50.962;5.340;2023-11-21T19:06:35;10.50;99.90
40848;DHT22;26570;50.962;5.340;2023-11-21T19:09:21;10.60;99.90
40848;DHT22;26570;50.962;5.340;2023-11-21T19:12:06;10.60;99.90
40848;DHT22;26570;50.962;5.340;2023-11-21T19:15:15;10.60;99.90
40848;DHT22;26570;50.962;5.340;2023-11-21T19:18:03;10.50;99.90
40848;DHT22;26570;50.962;5.340;2023-11-21T19:21:17;10.30;99.90
40848;DHT22;26570;50.962;5.340;2023-11-21T19:24:04;10.20;99.90
40848;DHT22;26570;50.962;5.340;2023-11-21T19:27:11;10.20;99.90
40848;DHT22;26570;50.962;5.340;2023-11-21T19:29:56;10.30;99.90
40848;DHT22;26570;50.962;5.340;2023-11-21T19:33:10;10.20;99.90
40848;DHT22;26570;50.962;5.340;2023-11-21T19:35:56;10.10;99.90
40848;DHT22;26570;50.962;5.340;2023-11-21T19:39:04;10.10;99.90
40848;DHT22;26570;50.962;5.340;2023-11-21T19:41:56;9.90;99.90
40848;DHT22;26570;50.962;5.340;2023-11-21T19:44:44;9.80;99.90
40848;DHT22;26570;50.962;5.340;2023-11-21T19:47:38;9.80;99.90
40848;DHT22;26570;50.962;5.340;2023-11-21T19:50:24;9.90;99.90
40848;DHT22;26570;50.962;5.340;2023-11-21T19:53:09;9.70;99.90
40848;DHT22;26570;50.962;5.340;2023-11-21T19:55:55;9.70;99.90
40848;DHT22;26570;50.962;5.340;2023-11-21T19:58:40;9.60;99.90
40848;DHT22;26570;50.962;5.340;2023-11-21T20:01:25;9.70;99.90
40848;DHT22;26570;50.962;5.340;2023-11-21T20:04:38;9.50;99.90
40848;DHT22;26570;50.962;5.340;2023-11-21T20:07:46;9.60;99.90
40848;DHT22;26570;50.962;5.340;2023-11-21T20:10:54;9.40;99.90
40848;DHT22;26570;50.962;5.340;2023-11-21T20:14:01;9.50;99.90
40848;DHT22;26570;50.962;5.340;2023-11-21T20:17:12;9.50;99.90
40848;DHT22;26570;50.962;5.340;2023-11-21T20:19:58;9.50;99.90
40848;DHT22;26570;50.962;5.340;2023-11-21T20:22:44;9.40;99.90
40848;DHT22;26570;50.962;5.340;2023-11-21T20:25:31;9.40;99.90
40848;DHT22;26570;50.962;5.340;2023-11-21T20:28:18;9.40;99.90
40848;DHT22;26570;50.962;5.340;2023-11-21T20:31:05;9.50;99.90
40848;DHT22;26570;50.962;5.340;2023-11-21T20:33:50;9.50;99.90
40848;DHT22;26570;50.962;5.340;2023-11-21T20:36:35;9.60;99.90
40848;DHT22;26570;50.962;5.340;2023-11-21T20:39:23;9.40;99.90
40848;DHT22;26570;50.962;5.340;2023-11-21T20:42:08;9.30;99.90
40848;DHT22;26570;50.962;5.340;2023-11-21T20:45:19;9.10;99.90
40848;DHT22;26570;50.962;5.340;2023-11-21T20:48:07;9.00;99.90
40848;DHT22;26570;50.962;5.340;2023-11-21T20:50:52;9.00;99.90
40848;DHT22;26570;50.962;5.340;2023-11-21T20:54:00;8.80;99.90
40848;DHT22;26570;50.962;5.340;2023-11-21T20:56:45;8.60;99.90
40848;DHT22;26570;50.962;5.340;2023-11-21T20:59:30;8.60;99.90
40848;DHT22;26570;50.962;5.340;2023-11-21T21:02:16;8.60;99.90
40848;DHT22;26570;50.962;5.340;2023-11-21T21:05:02;8.40;99.90
40848;DHT22;26570;50.962;5.340;2023-11-21T21:07:51;8.30;99.90
40848;DHT22;26570;50.962;5.340;2023-11-21T21:10:39;8.40;99.90
40848;DHT22;26570;50.962;5.340;2023-11-21T21:13:26;8.40;99.90
40848;DHT22;26570;50.962;5.340;2023-11-21T21:16:11;8.20;99.90
40848;DHT22;26570;50.962;5.340;2023-11-21T21:18:59;8.30;99.90
40848;DHT22;26570;50.962;5.340;2023-11-21T21:21:44;8.20;99.90
40848;DHT22;26570;50.962;5.340;2023-11-21T21:24:32;8.30;99.90
40848;DHT22;26570;50.962;5.340;2023-11-21T21:27:17;8.20;99.90
40848;DHT22;26570;50.962;5.340;2023-11-21T21:30:03;8.00;99.90
40848;DHT22;26570;50.962;5.340;2023-11-21T21:32:58;7.70;99.90
